sensor_id;sensor_type;location;lat;lon;timestamp;P1;durP1;ratioP1;P2;durP2;ratioP2
53959;SDS011;39866;48.638;-2.020;2023-10-31T00:01:47;4.28;;;3.25;;
53959;SDS011;39866;48.638;-2.020;2023-10-31T00:04:14;4.88;;;3.33;;
53959;SDS011;39866;48.638;-2.020;2023-10-31T00:06:39;6.55;;;3.60;;
53959;SDS011;39866;48.638;-2.020;2023-10-31T00:09:08;4.45;;;3.22;;
53959;SDS011;39866;48.638;-2.020;2023-10-31T00:11:35;5.70;;;3.28;;
53959;SDS011;39866;48.638;-2.020;2023-10-31T00:14:01;4.70;;;2.97;;
53959;SDS011;39866;48.638;-2.020;2023-10-31T00:16:26;4.18;;;2.80;;
53959;SDS011;39866;48.638;-2.020;2023-10-31T00:18:52;5.90;;;3.10;;
53959;SDS011;39866;48.638;-2.020;2023-10-31T00:21:18;4.60;;;3.08;;
53959;SDS011;39866;48.638;-2.020;2023-10-31T00:23:47;4.85;;;2.88;;
53959;SDS011;39866;48.638;-2.020;2023-10-31T00:26:14;4.65;;;2.85;;
53959;SDS011;39866;48.638;-2.020;2023-10-31T00:28:39;5.63;;;2.80;;
53959;SDS011;39866;48.638;-2.020;2023-10-31T00:31:05;4.47;;;2.97;;
53959;SDS011;39866;48.638;-2.020;2023-10-31T00:33:32;5.30;;;3.03;;
53959;SDS011;39866;48.638;-2.020;2023-10-31T00:35:57;5.40;;;3.30;;
53959;SDS011;39866;48.638;-2.020;2023-10-31T00:38:22;5.78;;;3.13;;
53959;SDS011;39866;48.638;-2.020;2023-10-31T00:40:48;5.85;;;3.13;;
53959;SDS011;39866;48.638;-2.020;2023-10-31T00:43:13;4.47;;;3.28;;
53959;SDS011;39866;48.638;-2.020;2023-10-31T00:45:39;3.92;;;2.70;;
53959;SDS011;39866;48.638;-2.020;2023-10-31T00:48:04;5.68;;;2.80;;
53959;SDS011;39866;48.638;-2.020;2023-10-31T00:50:29;5.13;;;2.88;;
53959;SDS011;39866;48.638;-2.020;2023-10-31T00:52:55;4.90;;;2.95;;
53959;SDS011;39866;48.638;-2.020;2023-10-31T00:55:20;4.80;;;3.00;;
53959;SDS011;39866;48.638;-2.020;2023-10-31T00:57:46;4.18;;;2.70;;
53959;SDS011;39866;48.638;-2.020;2023-10-31T01:00:11;3.90;;;2.90;;
53959;SDS011;39866;48.638;-2.020;2023-10-31T01:02:37;4.18;;;2.97;;
53959;SDS011;39866;48.638;-2.020;2023-10-31T01:05:02;4.78;;;2.95;;
53959;SDS011;39866;48.638;-2.020;2023-10-31T01:07:28;4.70;;;3.00;;
53959;SDS011;39866;48.638;-2.020;2023-10-31T01:09:53;4.30;;;2.58;;
53959;SDS011;39866;48.638;-2.020;2023-10-31T01:12:18;4.25;;;2.95;;
53959;SDS011;39866;48.638;-2.020;2023-10-31T01:14:44;5.05;;;2.92;;
53959;SDS011;39866;48.638;-2.020;2023-10-31T01:17:09;5.15;;;3.20;;
53959;SDS011;39866;48.638;-2.020;2023-10-31T01:19:34;4.82;;;2.92;;
53959;SDS011;39866;48.638;-2.020;2023-10-31T01:22:00;3.92;;;2.80;;
53959;SDS011;39866;48.638;-2.020;2023-10-31T01:24:25;4.95;;;2.97;;
53959;SDS011;39866;48.638;-2.020;2023-10-31T01:26:51;5.50;;;2.95;;
53959;SDS011;39866;48.638;-2.020;2023-10-31T01:29:16;4.90;;;2.88;;
53959;SDS011;39866;48.638;-2.020;2023-10-31T01:31:42;5.63;;;3.00;;
53959;SDS011;39866;48.638;-2.020;2023-10-31T01:34:07;4.65;;;2.90;;
53959;SDS011;39866;48.638;-2.020;2023-10-31T01:36:35;5.10;;;3.20;;
53959;SDS011;39866;48.638;-2.020;2023-10-31T01:39:01;3.28;;;2.80;;
53959;SDS011;39866;48.638;-2.020;2023-10-31T01:41:26;5.55;;;3.33;;
53959;SDS011;39866;48.638;-2.020;2023-10-31T01:43:52;5.63;;;3.30;;
53959;SDS011;39866;48.638;-2.020;2023-10-31T01:46:18;3.78;;;2.65;;
53959;SDS011;39866;48.638;-2.020;2023-10-31T01:48:43;4.82;;;2.78;;
53959;SDS011;39866;48.638;-2.020;2023-10-31T01:51:09;5.15;;;3.00;;
53959;SDS011;39866;48.638;-2.020;2023-10-31T01:53:35;4.35;;;2.70;;
53959;SDS011;39866;48.638;-2.020;2023-10-31T01:56:02;4.88;;;2.92;;
53959;SDS011;39866;48.638;-2.020;2023-10-31T01:58:30;6.88;;;3.55;;
53959;SDS011;39866;48.638;-2.020;2023-10-31T02:00:57;4.88;;;3.05;;
53959;SDS011;39866;48.638;-2.020;2023-10-31T02:03:24;5.38;;;2.80;;
53959;SDS011;39866;48.638;-2.020;2023-10-31T02:05:50;5.53;;;3.00;;
53959;SDS011;39866;48.638;-2.020;2023-10-31T02:08:16;4.97;;;2.88;;
53959;SDS011;39866;48.638;-2.020;2023-10-31T02:10:41;5.18;;;2.97;;
53959;SDS011;39866;48.638;-2.020;2023-10-31T02:13:16;5.28;;;3.00;;
53959;SDS011;39866;48.638;-2.020;2023-10-31T02:15:43;4.45;;;2.65;;
53959;SDS011;39866;48.638;-2.020;2023-10-31T02:18:09;6.25;;;2.80;;
53959;SDS011;39866;48.638;-2.020;2023-10-31T02:20:35;3.25;;;2.28;;
53959;SDS011;39866;48.638;-2.020;2023-10-31T02:23:01;4.97;;;3.10;;
53959;SDS011;39866;48.638;-2.020;2023-10-31T02:25:27;5.38;;;2.95;;
53959;SDS011;39866;48.638;-2.020;2023-10-31T02:27:53;5.05;;;2.90;;
53959;SDS011;39866;48.638;-2.020;2023-10-31T02:30:18;3.78;;;2.63;;
53959;SDS011;39866;48.638;-2.020;2023-10-31T02:32:43;4.07;;;2.70;;
53959;SDS011;39866;48.638;-2.020;2023-10-31T02:35:09;5.13;;;3.20;;
53959;SDS011;39866;48.638;-2.020;2023-10-31T02:37:37;4.53;;;2.85;;
53959;SDS011;39866;48.638;-2.020;2023-10-31T02:40:03;5.68;;;2.58;;
53959;SDS011;39866;48.638;-2.020;2023-10-31T02:42:31;5.63;;;2.90;;
53959;SDS011;39866;48.638;-2.020;2023-10-31T02:44:57;4.78;;;2.85;;
53959;SDS011;39866;48.638;-2.020;2023-10-31T02:47:25;5.32;;;2.72;;
53959;SDS011;39866;48.638;-2.020;2023-10-31T02:49:50;3.63;;;2.67;;
53959;SDS011;39866;48.638;-2.020;2023-10-31T02:52:16;5.80;;;2.97;;
53959;SDS011;39866;48.638;-2.020;2023-10-31T02:54:41;6.10;;;3.25;;
53959;SDS011;39866;48.638;-2.020;2023-10-31T02:57:09;6.65;;;3.15;;
53959;SDS011;39866;48.638;-2.020;2023-10-31T02:59:35;4.57;;;2.83;;
53959;SDS011;39866;48.638;-2.020;2023-10-31T03:02:00;7.13;;;3.58;;
53959;SDS011;39866;48.638;-2.020;2023-10-31T03:04:26;5.18;;;3.22;;
53959;SDS011;39866;48.638;-2.020;2023-10-31T03:06:51;8.35;;;3.47;;
53959;SDS011;39866;48.638;-2.020;2023-10-31T03:09:16;5.07;;;3.30;;
53959;SDS011;39866;48.638;-2.020;2023-10-31T03:11:45;5.63;;;3.22;;
53959;SDS011;39866;48.638;-2.020;2023-10-31T03:14:10;3.63;;;2.65;;
53959;SDS011;39866;48.638;-2.020;2023-10-31T03:16:36;5.43;;;3.20;;
53959;SDS011;39866;48.638;-2.020;2023-10-31T03:19:01;4.72;;;2.97;;
53959;SDS011;39866;48.638;-2.020;2023-10-31T03:21:27;5.28;;;2.83;;
53959;SDS011;39866;48.638;-2.020;2023-10-31T03:23:54;5.90;;;3.13;;
53959;SDS011;39866;48.638;-2.020;2023-10-31T03:26:23;5.95;;;3.25;;
53959;SDS011;39866;48.638;-2.020;2023-10-31T03:28:48;4.75;;;2.85;;
53959;SDS011;39866;48.638;-2.020;2023-10-31T03:31:14;4.50;;;2.53;;
53959;SDS011;39866;48.638;-2.020;2023-10-31T03:33:40;5.40;;;3.33;;
53959;SDS011;39866;48.638;-2.020;2023-10-31T03:36:07;4.53;;;2.60;;
53959;SDS011;39866;48.638;-2.020;2023-10-31T03:38:33;4.45;;;2.47;;
53959;SDS011;39866;48.638;-2.020;2023-10-31T03:40:59;3.72;;;2.30;;
53959;SDS011;39866;48.638;-2.020;2023-10-31T03:43:24;5.22;;;3.00;;
53959;SDS011;39866;48.638;-2.020;2023-10-31T03:45:51;4.68;;;2.90;;
53959;SDS011;39866;48.638;-2.020;2023-10-31T03:48:17;5.63;;;2.90;;
53959;SDS011;39866;48.638;-2.020;2023-10-31T03:50:42;5.68;;;2.83;;
53959;SDS011;39866;48.638;-2.020;2023-10-31T03:53:08;4.28;;;2.90;;
53959;SDS011;39866;48.638;-2.020;2023-10-31T03:55:36;5.00;;;2.67;;
53959;SDS011;39866;48.638;-2.020;2023-10-31T03:58:02;5.78;;;3.05;;
53959;SDS011;39866;48.638;-2.020;2023-10-31T04:00:27;5.38;;;2.72;;
53959;SDS011;39866;48.638;-2.020;2023-10-31T04:02:53;6.82;;;3.13;;
53959;SDS011;39866;48.638;-2.020;2023-10-31T04:05:18;5.40;;;2.85;;
53959;SDS011;39866;48.638;-2.020;2023-10-31T04:07:44;6.25;;;2.97;;
53959;SDS011;39866;48.638;-2.020;2023-10-31T04:10:10;6.50;;;2.85;;
53959;SDS011;39866;48.638;-2.020;2023-10-31T04:12:36;5.43;;;3.00;;
53959;SDS011;39866;48.638;-2.020;2023-10-31T04:15:01;7.75;;;2.90;;
53959;SDS011;39866;48.638;-2.020;2023-10-31T04:17:28;5.53;;;2.60;;
53959;SDS011;39866;48.638;-2.020;2023-10-31T04:19:53;4.30;;;2.20;;
53959;SDS011;39866;48.638;-2.020;2023-10-31T04:22:21;5.90;;;2.53;;
53959;SDS011;39866;48.638;-2.020;2023-10-31T04:24:47;4.28;;;2.58;;
53959;SDS011;39866;48.638;-2.020;2023-10-31T04:27:12;3.67;;;2.50;;
53959;SDS011;39866;48.638;-2.020;2023-10-31T04:29:37;3.83;;;2.50;;
53959;SDS011;39866;48.638;-2.020;2023-10-31T04:32:05;5.53;;;2.70;;
53959;SDS011;39866;48.638;-2.020;2023-10-31T04:34:31;4.15;;;2.35;;
53959;SDS011;39866;48.638;-2.020;2023-10-31T04:36:56;4.13;;;2.42;;
53959;SDS011;39866;48.638;-2.020;2023-10-31T04:39:22;3.40;;;2.65;;
53959;SDS011;39866;48.638;-2.020;2023-10-31T04:41:47;5.22;;;2.40;;
53959;SDS011;39866;48.638;-2.020;2023-10-31T04:44:13;3.90;;;2.58;;
53959;SDS011;39866;48.638;-2.020;2023-10-31T04:46:38;4.68;;;2.75;;
53959;SDS011;39866;48.638;-2.020;2023-10-31T04:49:04;4.60;;;2.33;;
53959;SDS011;39866;48.638;-2.020;2023-10-31T04:51:32;3.97;;;2.65;;
53959;SDS011;39866;48.638;-2.020;2023-10-31T04:53:59;4.72;;;2.50;;
53959;SDS011;39866;48.638;-2.020;2023-10-31T04:56:24;4.82;;;2.40;;
53959;SDS011;39866;48.638;-2.020;2023-10-31T04:58:50;5.03;;;2.42;;
53959;SDS011;39866;48.638;-2.020;2023-10-31T05:01:15;5.32;;;2.70;;
53959;SDS011;39866;48.638;-2.020;2023-10-31T05:03:41;5.82;;;2.65;;
53959;SDS011;39866;48.638;-2.020;2023-10-31T05:06:06;4.47;;;2.78;;
53959;SDS011;39866;48.638;-2.020;2023-10-31T05:08:32;5.72;;;3.17;;
53959;SDS011;39866;48.638;-2.020;2023-10-31T05:10:57;4.00;;;2.33;;
53959;SDS011;39866;48.638;-2.020;2023-10-31T05:13:24;5.65;;;2.80;;
53959;SDS011;39866;48.638;-2.020;2023-10-31T05:15:49;4.07;;;2.47;;
53959;SDS011;39866;48.638;-2.020;2023-10-31T05:18:15;4.30;;;2.45;;
53959;SDS011;39866;48.638;-2.020;2023-10-31T05:20:44;5.10;;;2.50;;
53959;SDS011;39866;48.638;-2.020;2023-10-31T05:23:09;4.22;;;2.13;;
53959;SDS011;39866;48.638;-2.020;2023-10-31T05:25:35;5.28;;;2.60;;
53959;SDS011;39866;48.638;-2.020;2023-10-31T05:28:00;5.28;;;2.65;;
53959;SDS011;39866;48.638;-2.020;2023-10-31T05:30:26;6.30;;;2.88;;
53959;SDS011;39866;48.638;-2.020;2023-10-31T05:32:52;3.80;;;2.08;;
53959;SDS011;39866;48.638;-2.020;2023-10-31T05:35:18;4.70;;;2.38;;
53959;SDS011;39866;48.638;-2.020;2023-10-31T05:37:45;3.58;;;2.00;;
53959;SDS011;39866;48.638;-2.020;2023-10-31T05:40:11;4.43;;;2.30;;
53959;SDS011;39866;48.638;-2.020;2023-10-31T05:42:37;5.55;;;3.03;;
53959;SDS011;39866;48.638;-2.020;2023-10-31T05:45:02;5.35;;;2.75;;
53959;SDS011;39866;48.638;-2.020;2023-10-31T05:47:28;8.10;;;3.60;;
53959;SDS011;39866;48.638;-2.020;2023-10-31T05:49:53;4.10;;;2.42;;
53959;SDS011;39866;48.638;-2.020;2023-10-31T05:52:18;6.57;;;2.78;;
53959;SDS011;39866;48.638;-2.020;2023-10-31T05:54:44;4.70;;;2.50;;
53959;SDS011;39866;48.638;-2.020;2023-10-31T05:57:09;4.82;;;2.50;;
53959;SDS011;39866;48.638;-2.020;2023-10-31T05:59:35;4.65;;;2.63;;
53959;SDS011;39866;48.638;-2.020;2023-10-31T06:02:00;3.22;;;2.47;;
53959;SDS011;39866;48.638;-2.020;2023-10-31T06:04:25;4.95;;;2.92;;
53959;SDS011;39866;48.638;-2.020;2023-10-31T06:06:51;7.18;;;3.03;;
53959;SDS011;39866;48.638;-2.020;2023-10-31T06:09:17;4.47;;;2.60;;
53959;SDS011;39866;48.638;-2.020;2023-10-31T06:11:42;3.70;;;2.50;;
53959;SDS011;39866;48.638;-2.020;2023-10-31T06:14:09;4.45;;;2.45;;
53959;SDS011;39866;48.638;-2.020;2023-10-31T06:16:41;6.32;;;2.58;;
53959;SDS011;39866;48.638;-2.020;2023-10-31T06:19:07;6.77;;;3.37;;
53959;SDS011;39866;48.638;-2.020;2023-10-31T06:21:33;5.18;;;2.97;;
53959;SDS011;39866;48.638;-2.020;2023-10-31T06:23:58;5.32;;;2.78;;
53959;SDS011;39866;48.638;-2.020;2023-10-31T06:26:24;4.90;;;3.28;;
53959;SDS011;39866;48.638;-2.020;2023-10-31T06:28:49;6.18;;;2.72;;
53959;SDS011;39866;48.638;-2.020;2023-10-31T06:31:14;6.05;;;3.13;;
53959;SDS011;39866;48.638;-2.020;2023-10-31T06:33:40;5.72;;;2.88;;
53959;SDS011;39866;48.638;-2.020;2023-10-31T06:36:06;6.47;;;3.00;;
53959;SDS011;39866;48.638;-2.020;2023-10-31T06:38:32;4.25;;;2.78;;
53959;SDS011;39866;48.638;-2.020;2023-10-31T06:40:57;7.13;;;2.83;;
53959;SDS011;39866;48.638;-2.020;2023-10-31T06:43:23;5.40;;;2.80;;
53959;SDS011;39866;48.638;-2.020;2023-10-31T06:45:49;5.30;;;2.75;;
53959;SDS011;39866;48.638;-2.020;2023-10-31T06:48:17;5.72;;;3.10;;
53959;SDS011;39866;48.638;-2.020;2023-10-31T06:50:42;5.10;;;2.63;;
53959;SDS011;39866;48.638;-2.020;2023-10-31T06:53:08;6.57;;;3.22;;
53959;SDS011;39866;48.638;-2.020;2023-10-31T06:55:33;9.50;;;3.90;;
53959;SDS011;39866;48.638;-2.020;2023-10-31T06:58:02;6.57;;;2.97;;
53959;SDS011;39866;48.638;-2.020;2023-10-31T07:00:27;6.55;;;3.15;;
53959;SDS011;39866;48.638;-2.020;2023-10-31T07:02:53;5.45;;;2.50;;
53959;SDS011;39866;48.638;-2.020;2023-10-31T07:05:18;4.53;;;3.00;;
53959;SDS011;39866;48.638;-2.020;2023-10-31T07:07:45;5.90;;;2.75;;
53959;SDS011;39866;48.638;-2.020;2023-10-31T07:10:11;6.97;;;3.40;;
53959;SDS011;39866;48.638;-2.020;2023-10-31T07:12:37;6.68;;;3.10;;
53959;SDS011;39866;48.638;-2.020;2023-10-31T07:15:02;5.65;;;2.65;;
53959;SDS011;39866;48.638;-2.020;2023-10-31T07:17:28;7.93;;;3.00;;
53959;SDS011;39866;48.638;-2.020;2023-10-31T07:19:55;6.38;;;2.90;;
53959;SDS011;39866;48.638;-2.020;2023-10-31T07:22:20;5.35;;;2.92;;
53959;SDS011;39866;48.638;-2.020;2023-10-31T07:24:47;6.25;;;2.83;;
53959;SDS011;39866;48.638;-2.020;2023-10-31T07:27:13;6.55;;;3.03;;
53959;SDS011;39866;48.638;-2.020;2023-10-31T07:29:39;6.90;;;3.08;;
53959;SDS011;39866;48.638;-2.020;2023-10-31T07:32:05;8.77;;;3.35;;
53959;SDS011;39866;48.638;-2.020;2023-10-31T07:34:31;5.10;;;2.42;;
53959;SDS011;39866;48.638;-2.020;2023-10-31T07:36:56;6.20;;;2.60;;
53959;SDS011;39866;48.638;-2.020;2023-10-31T07:39:22;8.15;;;3.20;;
53959;SDS011;39866;48.638;-2.020;2023-10-31T07:41:47;9.13;;;3.22;;
53959;SDS011;39866;48.638;-2.020;2023-10-31T07:44:16;7.40;;;3.20;;
53959;SDS011;39866;48.638;-2.020;2023-10-31T07:46:41;7.70;;;3.28;;
53959;SDS011;39866;48.638;-2.020;2023-10-31T07:49:06;8.93;;;3.35;;
53959;SDS011;39866;48.638;-2.020;2023-10-31T07:51:32;6.97;;;2.95;;
53959;SDS011;39866;48.638;-2.020;2023-10-31T07:54:00;8.77;;;3.38;;
53959;SDS011;39866;48.638;-2.020;2023-10-31T07:56:26;5.93;;;2.90;;
53959;SDS011;39866;48.638;-2.020;2023-10-31T07:58:51;7.60;;;2.88;;
53959;SDS011;39866;48.638;-2.020;2023-10-31T08:01:17;5.70;;;2.53;;
53959;SDS011;39866;48.638;-2.020;2023-10-31T08:03:44;5.82;;;2.80;;
53959;SDS011;39866;48.638;-2.020;2023-10-31T08:06:13;5.78;;;2.55;;
53959;SDS011;39866;48.638;-2.020;2023-10-31T08:08:38;6.93;;;3.28;;
53959;SDS011;39866;48.638;-2.020;2023-10-31T08:11:07;6.18;;;2.75;;
53959;SDS011;39866;48.638;-2.020;2023-10-31T08:13:33;6.25;;;2.78;;
53959;SDS011;39866;48.638;-2.020;2023-10-31T08:15:58;7.32;;;3.30;;
53959;SDS011;39866;48.638;-2.020;2023-10-31T08:18:23;7.32;;;3.13;;
53959;SDS011;39866;48.638;-2.020;2023-10-31T08:20:54;6.07;;;2.70;;
53959;SDS011;39866;48.638;-2.020;2023-10-31T08:23:22;7.03;;;3.20;;
53959;SDS011;39866;48.638;-2.020;2023-10-31T08:25:48;6.93;;;3.03;;
53959;SDS011;39866;48.638;-2.020;2023-10-31T08:28:14;8.77;;;3.63;;
53959;SDS011;39866;48.638;-2.020;2023-10-31T08:30:39;9.30;;;3.70;;
53959;SDS011;39866;48.638;-2.020;2023-10-31T08:33:08;8.15;;;3.53;;
53959;SDS011;39866;48.638;-2.020;2023-10-31T08:35:33;10.13;;;3.60;;
53959;SDS011;39866;48.638;-2.020;2023-10-31T08:37:58;5.78;;;2.80;;
53959;SDS011;39866;48.638;-2.020;2023-10-31T08:40:24;6.15;;;2.70;;
53959;SDS011;39866;48.638;-2.020;2023-10-31T08:42:50;6.18;;;3.13;;
53959;SDS011;39866;48.638;-2.020;2023-10-31T08:45:15;6.85;;;3.22;;
53959;SDS011;39866;48.638;-2.020;2023-10-31T08:47:40;7.53;;;3.10;;
53959;SDS011;39866;48.638;-2.020;2023-10-31T08:50:06;7.10;;;2.95;;
53959;SDS011;39866;48.638;-2.020;2023-10-31T08:52:33;8.10;;;3.00;;
53959;SDS011;39866;48.638;-2.020;2023-10-31T08:54:59;9.75;;;3.47;;
53959;SDS011;39866;48.638;-2.020;2023-10-31T08:57:24;9.75;;;3.42;;
53959;SDS011;39866;48.638;-2.020;2023-10-31T08:59:50;7.65;;;3.25;;
53959;SDS011;39866;48.638;-2.020;2023-10-31T09:02:15;7.35;;;3.63;;
53959;SDS011;39866;48.638;-2.020;2023-10-31T09:04:41;5.47;;;2.83;;
53959;SDS011;39866;48.638;-2.020;2023-10-31T09:07:06;7.65;;;3.15;;
53959;SDS011;39866;48.638;-2.020;2023-10-31T09:09:31;10.90;;;4.03;;
53959;SDS011;39866;48.638;-2.020;2023-10-31T09:12:02;7.75;;;3.63;;
53959;SDS011;39866;48.638;-2.020;2023-10-31T09:14:28;6.25;;;3.28;;
53959;SDS011;39866;48.638;-2.020;2023-10-31T09:16:53;5.20;;;2.80;;
53959;SDS011;39866;48.638;-2.020;2023-10-31T09:19:19;7.80;;;3.33;;
53959;SDS011;39866;48.638;-2.020;2023-10-31T09:21:44;8.25;;;3.38;;
53959;SDS011;39866;48.638;-2.020;2023-10-31T09:24:10;11.02;;;3.88;;
53959;SDS011;39866;48.638;-2.020;2023-10-31T09:26:38;9.60;;;3.70;;
53959;SDS011;39866;48.638;-2.020;2023-10-31T09:31:37;8.95;;;3.45;;
53959;SDS011;39866;48.638;-2.020;2023-10-31T09:34:03;6.97;;;2.85;;
53959;SDS011;39866;48.638;-2.020;2023-10-31T09:36:31;7.28;;;3.28;;
53959;SDS011;39866;48.638;-2.020;2023-10-31T09:38:57;9.52;;;3.53;;
53959;SDS011;39866;48.638;-2.020;2023-10-31T09:41:22;9.27;;;3.33;;
53959;SDS011;39866;48.638;-2.020;2023-10-31T09:43:48;8.10;;;3.80;;
53959;SDS011;39866;48.638;-2.020;2023-10-31T09:46:13;7.68;;;3.42;;
53959;SDS011;39866;48.638;-2.020;2023-10-31T09:48:38;7.80;;;3.63;;
53959;SDS011;39866;48.638;-2.020;2023-10-31T09:51:05;7.65;;;3.58;;
53959;SDS011;39866;48.638;-2.020;2023-10-31T09:53:32;10.05;;;3.70;;
53959;SDS011;39866;48.638;-2.020;2023-10-31T09:55:58;8.13;;;3.03;;
53959;SDS011;39866;48.638;-2.020;2023-10-31T09:58:24;8.07;;;3.30;;
53959;SDS011;39866;48.638;-2.020;2023-10-31T10:00:49;6.53;;;3.20;;
53959;SDS011;39866;48.638;-2.020;2023-10-31T10:03:16;8.27;;;3.65;;
53959;SDS011;39866;48.638;-2.020;2023-10-31T10:05:43;9.13;;;3.65;;
53959;SDS011;39866;48.638;-2.020;2023-10-31T10:08:09;9.05;;;3.42;;
53959;SDS011;39866;48.638;-2.020;2023-10-31T10:10:35;8.80;;;3.80;;
53959;SDS011;39866;48.638;-2.020;2023-10-31T10:13:00;5.93;;;3.13;;
53959;SDS011;39866;48.638;-2.020;2023-10-31T10:15:28;6.53;;;3.03;;
53959;SDS011;39866;48.638;-2.020;2023-10-31T10:17:53;9.60;;;3.67;;
53959;SDS011;39866;48.638;-2.020;2023-10-31T10:20:19;8.43;;;3.72;;
53959;SDS011;39866;48.638;-2.020;2023-10-31T10:22:45;9.20;;;3.80;;
53959;SDS011;39866;48.638;-2.020;2023-10-31T10:25:14;7.30;;;3.20;;
53959;SDS011;39866;48.638;-2.020;2023-10-31T10:27:42;7.38;;;3.60;;
53959;SDS011;39866;48.638;-2.020;2023-10-31T10:30:08;9.43;;;3.67;;
53959;SDS011;39866;48.638;-2.020;2023-10-31T10:32:34;7.63;;;3.03;;
53959;SDS011;39866;48.638;-2.020;2023-10-31T10:34:59;10.30;;;3.53;;
53959;SDS011;39866;48.638;-2.020;2023-10-31T10:37:28;9.73;;;4.00;;
53959;SDS011;39866;48.638;-2.020;2023-10-31T10:39:56;7.47;;;3.45;;
53959;SDS011;39866;48.638;-2.020;2023-10-31T10:42:31;7.75;;;3.13;;
53959;SDS011;39866;48.638;-2.020;2023-10-31T10:45:01;7.45;;;3.20;;
53959;SDS011;39866;48.638;-2.020;2023-10-31T10:47:28;9.55;;;3.45;;
53959;SDS011;39866;48.638;-2.020;2023-10-31T10:49:56;6.95;;;3.50;;
53959;SDS011;39866;48.638;-2.020;2023-10-31T10:52:28;7.22;;;2.88;;
53959;SDS011;39866;48.638;-2.020;2023-10-31T11:00:37;6.88;;;3.45;;
53959;SDS011;39866;48.638;-2.020;2023-10-31T11:03:04;6.25;;;2.90;;
53959;SDS011;39866;48.638;-2.020;2023-10-31T11:05:31;9.55;;;3.80;;
53959;SDS011;39866;48.638;-2.020;2023-10-31T11:07:57;7.95;;;3.60;;
53959;SDS011;39866;48.638;-2.020;2023-10-31T11:10:24;9.05;;;3.30;;
53959;SDS011;39866;48.638;-2.020;2023-10-31T11:12:50;7.28;;;3.30;;
53959;SDS011;39866;48.638;-2.020;2023-10-31T11:15:16;6.78;;;3.08;;
53959;SDS011;39866;48.638;-2.020;2023-10-31T11:17:48;7.25;;;3.28;;
53959;SDS011;39866;48.638;-2.020;2023-10-31T11:20:15;7.10;;;3.13;;
53959;SDS011;39866;48.638;-2.020;2023-10-31T11:22:45;7.53;;;3.25;;
53959;SDS011;39866;48.638;-2.020;2023-10-31T11:25:20;9.10;;;3.47;;
53959;SDS011;39866;48.638;-2.020;2023-10-31T11:27:52;8.75;;;4.00;;
53959;SDS011;39866;48.638;-2.020;2023-10-31T11:32:53;7.60;;;3.42;;
53959;SDS011;39866;48.638;-2.020;2023-10-31T11:35:19;8.23;;;3.60;;
53959;SDS011;39866;48.638;-2.020;2023-10-31T11:37:49;7.65;;;3.40;;
53959;SDS011;39866;48.638;-2.020;2023-10-31T11:40:26;8.20;;;3.53;;
53959;SDS011;39866;48.638;-2.020;2023-10-31T11:42:52;7.20;;;3.47;;
53959;SDS011;39866;48.638;-2.020;2023-10-31T11:45:28;8.30;;;3.40;;
53959;SDS011;39866;48.638;-2.020;2023-10-31T11:47:56;8.02;;;3.67;;
53959;SDS011;39866;48.638;-2.020;2023-10-31T11:50:24;9.48;;;3.92;;
53959;SDS011;39866;48.638;-2.020;2023-10-31T11:53:00;7.35;;;3.88;;
53959;SDS011;39866;48.638;-2.020;2023-10-31T11:55:49;9.00;;;3.58;;
53959;SDS011;39866;48.638;-2.020;2023-10-31T11:58:18;8.82;;;3.83;;
53959;SDS011;39866;48.638;-2.020;2023-10-31T12:00:49;8.65;;;4.05;;
53959;SDS011;39866;48.638;-2.020;2023-10-31T12:03:17;8.50;;;3.75;;
53959;SDS011;39866;48.638;-2.020;2023-10-31T12:05:50;6.15;;;3.15;;
53959;SDS011;39866;48.638;-2.020;2023-10-31T12:08:28;8.95;;;3.60;;
53959;SDS011;39866;48.638;-2.020;2023-10-31T12:11:08;9.32;;;3.63;;
53959;SDS011;39866;48.638;-2.020;2023-10-31T12:13:35;10.35;;;4.25;;
53959;SDS011;39866;48.638;-2.020;2023-10-31T12:16:02;9.95;;;4.43;;
53959;SDS011;39866;48.638;-2.020;2023-10-31T12:18:28;7.30;;;3.55;;
53959;SDS011;39866;48.638;-2.020;2023-10-31T12:20:53;10.13;;;4.15;;
53959;SDS011;39866;48.638;-2.020;2023-10-31T12:23:19;7.20;;;3.33;;
53959;SDS011;39866;48.638;-2.020;2023-10-31T12:25:48;9.98;;;3.80;;
53959;SDS011;39866;48.638;-2.020;2023-10-31T12:28:24;8.52;;;3.85;;
53959;SDS011;39866;48.638;-2.020;2023-10-31T12:30:53;10.05;;;4.30;;
53959;SDS011;39866;48.638;-2.020;2023-10-31T12:33:20;7.70;;;3.53;;
53959;SDS011;39866;48.638;-2.020;2023-10-31T12:35:50;7.43;;;3.45;;
53959;SDS011;39866;48.638;-2.020;2023-10-31T12:38:17;9.05;;;4.18;;
53959;SDS011;39866;48.638;-2.020;2023-10-31T12:40:43;8.30;;;4.00;;
53959;SDS011;39866;48.638;-2.020;2023-10-31T12:43:09;8.70;;;3.70;;
53959;SDS011;39866;48.638;-2.020;2023-10-31T12:45:35;8.27;;;3.88;;
53959;SDS011;39866;48.638;-2.020;2023-10-31T12:48:05;11.68;;;4.85;;
53959;SDS011;39866;48.638;-2.020;2023-10-31T12:50:35;13.00;;;4.53;;
53959;SDS011;39866;48.638;-2.020;2023-10-31T12:53:07;9.07;;;3.90;;
53959;SDS011;39866;48.638;-2.020;2023-10-31T12:55:39;11.13;;;4.00;;
53959;SDS011;39866;48.638;-2.020;2023-10-31T12:58:06;12.02;;;4.32;;
53959;SDS011;39866;48.638;-2.020;2023-10-31T13:00:32;10.73;;;4.63;;
53959;SDS011;39866;48.638;-2.020;2023-10-31T13:03:00;9.90;;;3.97;;
53959;SDS011;39866;48.638;-2.020;2023-10-31T13:05:26;10.60;;;4.13;;
53959;SDS011;39866;48.638;-2.020;2023-10-31T13:07:52;9.70;;;4.40;;
53959;SDS011;39866;48.638;-2.020;2023-10-31T13:10:20;11.25;;;4.30;;
53959;SDS011;39866;48.638;-2.020;2023-10-31T13:12:47;7.68;;;3.63;;
53959;SDS011;39866;48.638;-2.020;2023-10-31T13:15:14;9.75;;;4.10;;
53959;SDS011;39866;48.638;-2.020;2023-10-31T13:17:46;12.63;;;4.55;;
53959;SDS011;39866;48.638;-2.020;2023-10-31T13:20:15;9.95;;;4.18;;
53959;SDS011;39866;48.638;-2.020;2023-10-31T13:22:43;9.27;;;3.92;;
53959;SDS011;39866;48.638;-2.020;2023-10-31T13:25:12;9.82;;;4.50;;
53959;SDS011;39866;48.638;-2.020;2023-10-31T13:27:39;10.05;;;3.97;;
53959;SDS011;39866;48.638;-2.020;2023-10-31T13:30:07;13.68;;;4.90;;
53959;SDS011;39866;48.638;-2.020;2023-10-31T13:32:34;7.70;;;3.63;;
53959;SDS011;39866;48.638;-2.020;2023-10-31T13:35:00;8.35;;;3.92;;
53959;SDS011;39866;48.638;-2.020;2023-10-31T13:37:25;9.45;;;3.78;;
53959;SDS011;39866;48.638;-2.020;2023-10-31T13:39:51;11.80;;;4.30;;
53959;SDS011;39866;48.638;-2.020;2023-10-31T13:42:16;6.43;;;3.38;;
53959;SDS011;39866;48.638;-2.020;2023-10-31T13:44:42;6.93;;;3.60;;
53959;SDS011;39866;48.638;-2.020;2023-10-31T13:47:08;6.15;;;3.00;;
53959;SDS011;39866;48.638;-2.020;2023-10-31T13:49:34;6.30;;;3.20;;
53959;SDS011;39866;48.638;-2.020;2023-10-31T13:51:59;6.82;;;2.53;;
53959;SDS011;39866;48.638;-2.020;2023-10-31T13:54:25;5.97;;;2.60;;
53959;SDS011;39866;48.638;-2.020;2023-10-31T13:56:51;5.15;;;2.70;;
53959;SDS011;39866;48.638;-2.020;2023-10-31T13:59:16;8.02;;;2.97;;
53959;SDS011;39866;48.638;-2.020;2023-10-31T14:01:43;7.45;;;2.90;;
53959;SDS011;39866;48.638;-2.020;2023-10-31T14:04:11;6.07;;;2.53;;
53959;SDS011;39866;48.638;-2.020;2023-10-31T14:06:38;6.97;;;2.92;;
53959;SDS011;39866;48.638;-2.020;2023-10-31T14:09:04;4.60;;;2.28;;
53959;SDS011;39866;48.638;-2.020;2023-10-31T14:11:33;6.78;;;2.50;;
53959;SDS011;39866;48.638;-2.020;2023-10-31T14:13:59;6.15;;;2.67;;
53959;SDS011;39866;48.638;-2.020;2023-10-31T14:16:31;5.82;;;2.70;;
53959;SDS011;39866;48.638;-2.020;2023-10-31T14:19:02;6.20;;;2.58;;
53959;SDS011;39866;48.638;-2.020;2023-10-31T14:21:28;5.35;;;2.20;;
53959;SDS011;39866;48.638;-2.020;2023-10-31T14:23:54;5.60;;;2.33;;
53959;SDS011;39866;48.638;-2.020;2023-10-31T14:26:20;7.32;;;2.40;;
53959;SDS011;39866;48.638;-2.020;2023-10-31T14:28:46;5.90;;;2.10;;
53959;SDS011;39866;48.638;-2.020;2023-10-31T14:31:12;5.03;;;2.00;;
53959;SDS011;39866;48.638;-2.020;2023-10-31T14:33:37;6.90;;;2.50;;
53959;SDS011;39866;48.638;-2.020;2023-10-31T14:36:03;4.30;;;1.90;;
53959;SDS011;39866;48.638;-2.020;2023-10-31T14:38:29;4.97;;;1.88;;
53959;SDS011;39866;48.638;-2.020;2023-10-31T14:40:54;5.95;;;2.45;;